Terminal Aerodrome Forecast
Issued by NWS

Home | Current Version | Previous Version | Text Only | Print | Product List | Glossary On
Versions: 1 2 3 4 5 6 7 8 9 10 11 12 13 14 15 16 17 18 19 20
000
FTUS43 KICT 230533
TAFSLN
TAF
KSLN 230533Z 2306/2406 18018G25KT P6SM SCT006 OVC015
      TEMPO 2310/2314 18014KT OVC006
     FM231500 35026G33KT P6SM OVC015
     FM232200 35020G28KT P6SM OVC060=

USA.gov is the U.S. government's official web portal to all federal, state and local government web resources and services.